Radar AviationWeather DUATS TFRs Wunderground Accuweather Weather.com

alt : Radar

TAFs

KDTW 021426Z 0214/0318 24007KT P6SM OVC060
   FM021800 25008KT P6SM BKN045
   FM030000 26006KT P6SM SCT040
   FM031400 30005KT P6SM BKN150
KTOL 021355Z 0214/0312 23006KT P6SM VCTS SCT050CB BKN070
   FM021600 25008KT P6SM SCT050
KJXN 021134Z 0212/0312 20004KT 6SM BR VCTS SCT035CB
   FM021400 27009KT P6SM BKN035
   FM022100 24009KT P6SM VCTS SCT035CB
   FM022300 27005KT P6SM SCT035
   FM030600 VRB03KT 3SM BR SCT250
KFDY 021132Z 0212/0312 20004KT P6SM FEW070
     TEMPO 0212/0213 5SM BR
   FM021300 23006KT P6SM VCSH BKN070
   FM021600 25008KT P6SM SCT050
KCLE 021132Z 0212/0318 20005KT P6SM SCT250
   FM021800 32008KT P6SM SCT050
KFWA 021130Z 0212/0312 22004KT P6SM FEW050
     TEMPO 0212/0213 4SM BR
   FM021600 26009KT P6SM SCT035
   FM030000 25005KT P6SM SCT050

METARs

KTDZ 021442Z AUTO 25009KT 10SM VCTS BKN040 BKN050 26/21 A3010 RMK AO2 LTG DSNT N AND SW T02560206
KDUH 021435Z AUTO 10003KT 1 1/4SM +RA SCT010 BKN016 OVC022 23/21 A3010 RMK AO2 T02280208
KJXN 021356Z 21004KT 4SM BR CLR 22/21 A3007 RMK AO2 SLP178 T02220206
KFWA 021354Z 26006KT 9SM FEW110 25/22 A3011 RMK AO2 SLP191 T02500217
KDTW 021353Z 25005KT 9SM FEW025 BKN070 BKN230 26/21 A3007 RMK AO2 SLP176 T02610211
KFDY 021353Z AUTO 23007KT 10SM CLR 26/21 A3009 RMK AO2 SLP182 T02560206
KTOL 021352Z 25011KT 10SM SCT043 BKN060 24/20 A3008 RMK AO2 SLP181 T02440200
KCLE 021351Z 23005KT 10SM CLR 24/21 A3011 RMK AO2 SLP189 T02440206

alt : Satellite

alt : TFRs